Time;durP1;ratioP1;P1;durP2;ratioP2;P2;SDS_P1;SDS_P2;PMS_P1;PMS_P2;Temp;Humidity;BMP_temperature;BMP_pressure;BME280_temperature;BME280_humidity;BME280_pressure;Samples;Min_cycle;Max_cycle;Signal;HPM_P1;HPM_P2
2022/07/21 00:02:15;;;;;;;9.25;8.30;;;;;;;25.66;42.82;100808.56;5006905;28;20202;-82
2022/07/21 00:04:41;;;;;;;11.68;8.38;;;;;;;25.65;42.73;100804.13;5004985;28;20305;-81
2022/07/21 00:07:08;;;;;;;9.57;8.63;;;;;;;25.64;42.69;100786.91;5006400;28;20563;-81
2022/07/21 00:09:35;;;;;;;8.82;8.13;;;;;;;25.63;42.81;100784.38;5008993;28;20207;-82
2022/07/21 00:12:01;;;;;;;9.13;8.20;;;;;;;25.62;42.92;100786.25;5011721;28;20682;-81
2022/07/21 00:14:28;;;;;;;10.07;8.57;;;;;;;25.62;42.97;100782.69;5007546;28;20230;-82
2022/07/21 00:16:56;;;;;;;9.40;8.48;;;;;;;25.60;43.26;100781.00;5005152;28;20205;-82
2022/07/21 00:19:22;;;;;;;9.55;8.65;;;;;;;25.58;43.47;100776.75;5006272;28;20215;-82
2022/07/21 00:21:49;;;;;;;9.63;8.50;;;;;;;25.56;43.96;100776.94;5001931;28;20204;-82
2022/07/21 00:24:15;;;;;;;14.00;8.98;;;;;;;25.56;43.84;100795.19;5006760;28;20230;-81
2022/07/21 00:26:42;;;;;;;9.65;8.73;;;;;;;25.57;43.82;100808.63;5009089;28;20210;-81
2022/07/21 00:29:09;;;;;;;9.45;8.32;;;;;;;25.56;43.99;100817.84;5013917;28;20567;-82
2022/07/21 00:31:35;;;;;;;10.13;8.52;;;;;;;25.55;44.29;100834.41;5005781;28;20214;-82
2022/07/21 00:34:03;;;;;;;9.48;8.52;;;;;;;25.54;44.32;100836.28;5010997;28;20257;-82
2022/07/21 00:36:30;;;;;;;10.07;8.48;;;;;;;25.53;44.06;100839.19;5007740;28;20208;-82
2022/07/21 00:38:56;;;;;;;8.45;7.65;;;;;;;25.51;44.25;100847.56;5004300;28;20665;-82
2022/07/21 00:41:23;;;;;;;8.95;8.07;;;;;;;25.50;44.66;100864.13;5010934;28;20672;-82
2022/07/21 00:43:50;;;;;;;9.10;8.30;;;;;;;25.47;44.69;100861.78;5014145;28;20222;-82
2022/07/21 00:46:16;;;;;;;8.88;8.18;;;;;;;25.46;44.64;100868.25;5012916;28;20217;-82
2022/07/21 00:48:43;;;;;;;8.90;8.02;;;;;;;25.41;44.80;100868.84;5012616;28;20297;-81
2022/07/21 00:51:11;;;;;;;11.55;8.25;;;;;;;25.40;45.21;100863.56;5014748;28;20221;-82
2022/07/21 00:53:37;;;;;;;9.93;8.70;;;;;;;25.35;45.46;100853.22;5013562;28;20229;-82
2022/07/21 00:56:05;;;;;;;9.80;7.90;;;;;;;25.32;45.92;100869.94;5021609;28;20209;-82
2022/07/21 00:58:32;;;;;;;7.15;6.45;;;;;;;25.31;46.93;100862.81;5013366;28;20242;-82
2022/07/21 01:00:58;;;;;;;7.85;5.82;;;;;;;25.30;47.98;100855.66;5008770;28;20207;-82
2022/07/21 01:03:25;;;;;;;6.20;4.85;;;;;;;25.27;49.62;100856.03;5009811;28;20221;-82
2022/07/21 01:05:51;;;;;;;4.75;4.07;;;;;;;25.27;50.10;100864.22;5010795;28;20245;-82
2022/07/21 01:08:19;;;;;;;5.03;4.40;;;;;;;25.23;50.84;100862.91;5006118;28;20215;-82
2022/07/21 01:10:46;;;;;;;6.47;3.47;;;;;;;25.19;51.08;100851.53;5010207;28;20222;-82
2022/07/21 01:13:12;;;;;;;4.53;4.13;;;;;;;25.16;51.58;100851.06;5011989;28;20213;-82
2022/07/21 01:15:39;;;;;;;5.20;4.13;;;;;;;25.10;51.87;100844.47;5015243;28;20232;-82
2022/07/21 01:18:05;;;;;;;4.68;3.90;;;;;;;25.05;52.20;100835.19;5007947;28;20210;-82
2022/07/21 01:20:35;;;;;;;3.08;2.67;;;;;;;25.01;52.83;100812.06;5011591;28;20215;-83
2022/07/21 01:23:04;;;;;;;2.60;2.40;;;;;;;24.94;53.23;100809.22;5012980;28;20257;-81
2022/07/21 01:25:31;;;;;;;5.25;3.35;;;;;;;24.86;53.55;100829.19;5011727;28;20231;-82
2022/07/21 01:27:57;;;;;;;3.47;3.15;;;;;;;24.81;53.84;100823.47;5012099;28;20217;-81
2022/07/21 01:30:24;;;;;;;4.07;3.15;;;;;;;24.74;54.29;100827.94;5012035;28;20557;-81
2022/07/21 01:32:51;;;;;;;4.20;2.63;;;;;;;24.69;54.42;100838.56;5013700;28;20212;-81
2022/07/21 01:35:17;;;;;;;4.88;3.00;;;;;;;24.66;54.68;100835.34;5011746;28;20240;-82
2022/07/21 01:37:45;;;;;;;3.00;2.70;;;;;;;24.62;54.97;100823.97;5010258;28;20202;-83
2022/07/21 01:42:58;;;;;;;5.25;2.90;;;;;;;24.55;55.89;100825.72;5000602;28;20214;-82
2022/07/21 01:45:24;;;;;;;2.70;2.42;;;;;;;24.51;56.14;100794.47;5008973;28;20234;-81
2022/07/21 01:47:51;;;;;;;3.42;2.45;;;;;;;24.48;55.99;100782.06;5011310;28;20216;-82
2022/07/21 01:50:20;;;;;;;3.75;2.45;;;;;;;24.46;56.32;100818.69;5011548;28;20202;-83
2022/07/21 01:52:47;;;;;;;2.47;2.28;;;;;;;24.42;56.70;100830.97;5006576;28;20212;-83
2022/07/21 01:55:15;;;;;;;3.75;2.60;;;;;;;24.37;56.87;100796.09;5010404;28;20249;-83
2022/07/21 01:57:41;;;;;;;2.88;2.50;;;;;;;24.33;57.17;100785.78;5011060;28;20225;-83
2022/07/21 02:00:10;;;;;;;2.55;2.35;;;;;;;24.30;57.24;100827.81;5007740;28;20575;-83
2022/07/21 02:02:37;;;;;;;2.88;2.55;;;;;;;24.30;57.77;100844.16;5008029;28;20211;-82
2022/07/21 02:05:03;;;;;;;2.55;2.33;;;;;;;24.30;58.20;100829.69;5007071;28;20215;-82
2022/07/21 02:07:30;;;;;;;2.53;2.33;;;;;;;24.30;58.28;100835.16;5009373;28;20819;-81
2022/07/21 02:09:56;;;;;;;2.63;2.38;;;;;;;24.28;58.77;100820.88;5012361;28;20199;-81
2022/07/21 02:12:24;;;;;;;2.95;2.33;;;;;;;24.25;59.26;100822.06;5011864;28;20207;-82
2022/07/21 02:14:51;;;;;;;2.72;2.20;;;;;;;24.23;59.54;100810.47;5007467;28;20350;-82
2022/07/21 02:17:17;;;;;;;3.42;2.42;;;;;;;24.17;59.91;100795.75;5011953;28;20805;-81
2022/07/21 02:19:44;;;;;;;2.75;2.20;;;;;;;24.10;60.54;100789.34;5008979;28;20203;-82
2022/07/21 02:22:10;;;;;;;2.15;2.00;;;;;;;24.05;61.11;100782.72;5011031;28;20205;-81
2022/07/21 02:24:39;;;;;;;2.13;2.03;;;;;;;24.01;61.44;100790.41;5011916;28;20229;-81
2022/07/21 02:27:06;;;;;;;2.53;1.90;;;;;;;23.94;61.77;100775.84;5012398;28;20217;-83
2022/07/21 02:29:34;;;;;;;2.13;2.00;;;;;;;23.88;62.20;100787.44;5012975;28;20290;-82
2022/07/21 02:32:00;;;;;;;2.40;2.20;;;;;;;23.82;62.32;100815.38;5010674;28;20211;-82
2022/07/21 02:34:27;;;;;;;2.80;2.10;;;;;;;23.73;62.85;100844.47;5010037;28;20241;-82
2022/07/21 02:36:53;;;;;;;2.58;1.98;;;;;;;23.67;63.07;100868.78;5011437;28;20272;-81
2022/07/21 02:39:20;;;;;;;2.60;2.20;;;;;;;23.61;63.40;100872.25;5007374;28;20210;-82
2022/07/21 02:41:47;;;;;;;2.35;2.00;;;;;;;23.58;63.82;100883.47;5005882;28;20233;-82
2022/07/21 02:44:13;;;;;;;1.80;1.70;;;;;;;23.55;64.17;100879.22;5012022;28;20225;-81
2022/07/21 02:46:41;;;;;;;2.88;2.58;;;;;;;23.51;64.16;100865.13;5007357;28;20588;-82
2022/07/21 02:49:07;;;;;;;2.38;2.17;;;;;;;23.48;64.55;100834.69;5012656;28;20293;-81
2022/07/21 02:51:34;;;;;;;2.55;2.35;;;;;;;23.45;64.61;100818.75;5012763;28;20231;-83
2022/07/21 02:54:00;;;;;;;2.80;2.30;;;;;;;23.42;64.63;100821.81;5011243;28;20228;-82
2022/07/21 02:56:27;;;;;;;2.50;2.30;;;;;;;23.38;64.58;100820.47;5005026;28;20206;-82
2022/07/21 02:58:53;;;;;;;2.40;2.20;;;;;;;23.37;64.90;100805.19;5010003;28;20213;-81
2022/07/21 03:01:20;;;;;;;2.38;2.17;;;;;;;23.37;64.73;100813.34;5011035;28;20209;-81
2022/07/21 03:03:48;;;;;;;2.38;2.17;;;;;;;23.34;64.63;100803.66;5008821;28;20202;-82
2022/07/21 03:06:15;;;;;;;1.92;1.83;;;;;;;23.34;64.86;100795.50;5010691;28;20214;-82
2022/07/21 03:08:41;;;;;;;3.00;2.13;;;;;;;23.30;64.91;100786.00;5011307;28;20859;-83
2022/07/21 03:11:08;;;;;;;2.33;2.20;;;;;;;23.26;64.97;100776.53;5011622;28;20583;-82
2022/07/21 03:13:35;;;;;;;2.63;2.00;;;;;;;23.20;65.49;100759.06;5009128;28;20207;-82
2022/07/21 03:16:01;;;;;;;2.25;2.05;;;;;;;23.12;65.57;100774.53;5012962;28;20823;-81
2022/07/21 03:18:28;;;;;;;3.42;2.53;;;;;;;23.04;65.89;100782.72;5007936;28;20230;-82
2022/07/21 03:20:57;;;;;;;2.22;2.03;;;;;;;23.02;66.24;100779.34;5010829;28;20209;-82
2022/07/21 03:23:24;;;;;;;3.50;2.17;;;;;;;23.01;65.99;100772.19;5013147;28;20211;-83
2022/07/21 03:25:50;;;;;;;3.25;2.30;;;;;;;23.00;65.80;100765.06;5010126;28;20592;-83
2022/07/21 03:28:17;;;;;;;1.95;1.85;;;;;;;22.99;65.93;100766.94;5008761;28;20210;-83
2022/07/21 03:30:43;;;;;;;2.13;1.92;;;;;;;22.98;65.49;100762.53;5009925;28;20199;-83
2022/07/21 03:33:10;;;;;;;3.08;2.20;;;;;;;22.99;65.30;100785.09;5011826;28;20216;-83
2022/07/21 03:35:36;;;;;;;3.42;3.00;;;;;;;23.01;65.44;100805.66;5011099;28;20226;-83
2022/07/21 03:38:06;;;;;;;5.00;4.38;;;;;;;23.02;65.52;100815.50;5011025;28;20211;-82
2022/07/21 03:40:35;;;;;;;3.75;3.35;;;;;;;23.04;65.58;100821.59;5011492;28;20225;-84
2022/07/21 03:43:03;;;;;;;4.45;4.05;;;;;;;23.03;65.88;100819.06;5007558;28;20203;-82
2022/07/21 03:45:32;;;;;;;4.95;4.45;;;;;;;23.02;66.06;100812.78;5009258;28;20225;-82
2022/07/21 03:47:59;;;;;;;5.05;4.55;;;;;;;23.01;66.26;100789.34;5008980;28;20205;-83
2022/07/21 03:50:26;;;;;;;5.20;4.40;;;;;;;23.00;66.33;100776.78;5010980;28;20258;-83
2022/07/21 03:52:53;;;;;;;5.10;4.70;;;;;;;22.99;66.86;100791.38;5009663;28;20209;-82
2022/07/21 03:55:21;;;;;;;5.80;5.15;;;;;;;22.99;67.44;100799.53;5007985;28;20248;-83
2022/07/21 03:57:49;;;;;;;6.38;4.63;;;;;;;22.99;67.93;100815.84;5011725;28;20752;-82
2022/07/21 04:00:18;;;;;;;4.90;4.50;;;;;;;23.00;68.46;100832.97;5012307;28;20548;-83
2022/07/21 04:02:45;;;;;;;5.63;5.13;;;;;;;22.99;68.88;100839.44;5013073;28;20199;-82
2022/07/21 04:05:12;;;;;;;6.13;5.53;;;;;;;22.94;69.26;100841.81;5008376;28;20230;-82
2022/07/21 04:07:40;;;;;;;7.05;6.40;;;;;;;22.90;69.69;100840.50;5008561;28;20313;-83
2022/07/21 04:10:08;;;;;;;9.68;6.90;;;;;;;22.85;70.26;100852.72;5015645;28;20267;-82
2022/07/21 04:12:36;;;;;;;8.70;7.07;;;;;;;22.82;70.58;100861.19;5010842;28;20214;-82
2022/07/21 04:15:03;;;;;;;7.90;7.10;;;;;;;22.81;70.95;100866.78;5006159;28;20230;-83
2022/07/21 04:17:30;;;;;;;8.98;8.07;;;;;;;22.80;71.28;100873.25;5009018;28;20273;-82
2022/07/21 04:19:56;;;;;;;8.52;7.70;;;;;;;22.80;71.32;100874.09;5011008;28;20206;-83
2022/07/21 04:22:23;;;;;;;9.05;8.18;;;;;;;22.75;71.59;100884.56;5011620;28;20206;-82
2022/07/21 04:24:49;;;;;;;9.75;8.77;;;;;;;22.73;71.98;100899.38;5010540;28;20236;-83
2022/07/21 04:27:16;;;;;;;9.98;8.55;;;;;;;22.71;72.55;100912.25;5008958;28;20762;-82
2022/07/21 04:29:43;;;;;;;9.98;7.97;;;;;;;22.68;72.70;100907.16;5017415;28;20217;-82
2022/07/21 04:32:10;;;;;;;8.70;7.88;;;;;;;22.64;72.51;100908.50;5010316;28;20221;-83
2022/07/21 04:34:37;;;;;;;8.68;7.80;;;;;;;22.59;72.58;100917.16;5002683;28;20240;-83
2022/07/21 04:37:03;;;;;;;8.48;7.60;;;;;;;22.56;72.81;100914.81;5010173;28;20203;-82
2022/07/21 04:39:30;;;;;;;9.50;7.85;;;;;;;22.54;72.74;100927.69;5009915;28;20207;-83
2022/07/21 04:41:56;;;;;;;8.73;7.50;;;;;;;22.51;72.89;100925.31;5010349;28;20203;-83
2022/07/21 04:44:23;;;;;;;8.07;7.28;;;;;;;22.51;73.07;100926.16;5004332;28;20234;-82
2022/07/21 04:46:51;;;;;;;8.38;7.10;;;;;;;22.51;73.23;100907.16;5006438;28;20229;-83
2022/07/21 04:49:17;;;;;;;7.60;6.88;;;;;;;22.52;73.09;100894.44;5005893;28;20232;-82
2022/07/21 04:51:44;;;;;;;10.23;7.18;;;;;;;22.51;72.98;100900.88;5010603;28;20202;-82
2022/07/21 04:54:13;;;;;;;6.97;6.22;;;;;;;22.50;73.10;100901.88;5004600;28;20223;-82
2022/07/21 04:56:40;;;;;;;7.78;6.95;;;;;;;22.49;73.17;100906.47;5013517;28;20247;-82
2022/07/21 04:59:07;;;;;;;7.82;7.00;;;;;;;22.48;73.11;100904.78;5005728;28;20203;-81
2022/07/21 05:01:33;;;;;;;6.53;5.93;;;;;;;22.44;72.78;100899.84;5009193;28;20859;-82
2022/07/21 05:04:01;;;;;;;5.63;5.13;;;;;;;22.42;72.51;100901.88;5004668;28;20229;-82
2022/07/21 05:06:28;;;;;;;5.63;4.57;;;;;;;22.37;72.25;100904.25;5009299;28;20206;-82
2022/07/21 05:08:54;;;;;;;5.50;5.00;;;;;;;22.35;72.45;100909.84;5009187;28;20559;-83
2022/07/21 05:11:21;;;;;;;5.25;4.75;;;;;;;22.32;72.45;100899.31;5008358;28;20226;-83
2022/07/21 05:13:47;;;;;;;5.32;4.90;;;;;;;22.32;72.53;100893.03;5003141;28;20841;-81
2022/07/21 05:16:14;;;;;;;5.28;4.80;;;;;;;22.29;72.71;100887.94;5005766;28;20240;-82
2022/07/21 05:18:40;;;;;;;5.40;4.90;;;;;;;22.29;72.65;100901.50;5008314;28;20215;-82
2022/07/21 05:21:09;;;;;;;6.65;4.90;;;;;;;22.27;72.84;100898.13;5015102;28;20227;-82
2022/07/21 05:23:35;;;;;;;5.97;5.00;;;;;;;22.26;73.05;100908.13;5009580;28;20217;-82
2022/07/21 05:26:02;;;;;;;5.43;4.93;;;;;;;22.26;72.93;100912.69;5010569;28;20199;-82
2022/07/21 05:28:28;;;;;;;5.40;4.90;;;;;;;22.24;73.08;100912.00;5007030;28;20582;-82
2022/07/21 05:30:55;;;;;;;5.20;4.70;;;;;;;22.21;73.19;100920.50;5008729;28;20603;-82
2022/07/21 05:33:21;;;;;;;5.88;5.18;;;;;;;22.17;73.44;100920.84;5014441;28;20214;-83
2022/07/21 05:35:48;;;;;;;5.27;4.77;;;;;;;22.14;73.60;100918.44;5014812;28;20230;-81
2022/07/21 05:38:16;;;;;;;5.82;4.90;;;;;;;22.12;73.57;100912.34;5016078;28;20215;-82
2022/07/21 05:40:42;;;;;;;5.05;4.57;;;;;;;22.12;73.66;100927.75;5017993;28;20219;-81
2022/07/21 05:43:09;;;;;;;5.47;4.47;;;;;;;22.09;73.72;100922.66;5013726;28;20214;-81
2022/07/21 05:45:35;;;;;;;6.20;4.00;;;;;;;22.06;73.86;100921.13;5013181;28;20642;-81
2022/07/21 05:48:02;;;;;;;4.50;4.10;;;;;;;22.07;73.95;100921.97;5015553;28;20210;-81
2022/07/21 05:50:28;;;;;;;4.35;3.95;;;;;;;22.05;73.94;100927.56;5015877;28;20241;-82
2022/07/21 05:52:55;;;;;;;5.30;3.90;;;;;;;22.04;73.86;100927.72;5013799;28;20217;-82
2022/07/21 05:55:23;;;;;;;4.40;4.10;;;;;;;22.05;73.74;100938.41;5016268;28;20240;-82
2022/07/21 05:57:49;;;;;;;4.00;3.57;;;;;;;22.05;73.78;100948.41;5015447;28;20212;-81
2022/07/21 06:00:17;;;;;;;4.10;3.38;;;;;;;22.06;73.73;100955.53;5013076;28;20727;-81
2022/07/21 06:02:44;;;;;;;4.68;3.75;;;;;;;22.06;73.72;100952.81;5013824;28;20209;-82
2022/07/21 06:05:11;;;;;;;3.90;3.50;;;;;;;22.05;73.60;100948.41;5011526;28;20990;-81
2022/07/21 06:07:38;;;;;;;3.43;3.07;;;;;;;22.04;73.42;100941.28;5012965;28;20217;-81
2022/07/21 06:10:06;;;;;;;3.97;3.67;;;;;;;22.02;73.54;100948.75;5011433;28;20201;-81
2022/07/21 06:12:34;;;;;;;4.57;3.55;;;;;;;22.03;73.67;100947.75;5013637;28;20210;-81
2022/07/21 06:15:00;;;;;;;3.80;3.20;;;;;;;22.04;73.56;100954.84;5013563;28;20787;-82
2022/07/21 06:17:31;;;;;;;4.00;3.53;;;;;;;22.05;73.28;100960.09;5013804;28;20212;-81
2022/07/21 06:19:57;;;;;;;3.70;3.40;;;;;;;22.06;73.30;100967.22;5014556;28;20206;-82
2022/07/21 06:22:24;;;;;;;3.60;3.30;;;;;;;22.05;73.20;100968.25;5011441;28;20209;-81
2022/07/21 06:24:50;;;;;;;3.13;2.87;;;;;;;22.05;72.81;100962.81;5011765;28;20223;-81
2022/07/21 06:27:17;;;;;;;3.63;3.33;;;;;;;22.07;73.28;100958.06;5016186;28;20559;-81
2022/07/21 06:29:45;;;;;;;3.80;3.50;;;;;;;22.07;73.08;100959.94;5016722;28;20564;-81
2022/07/21 06:32:11;;;;;;;4.03;3.43;;;;;;;22.10;73.34;100971.31;5012643;28;20207;-81
2022/07/21 06:34:38;;;;;;;4.05;3.75;;;;;;;22.11;73.33;100975.72;5012276;28;20826;-82
2022/07/21 06:37:04;;;;;;;4.47;4.07;;;;;;;22.13;73.28;100975.56;5012150;28;20593;-82
2022/07/21 06:39:31;;;;;;;5.25;3.67;;;;;;;22.16;72.87;100983.38;5007661;28;20632;-82
2022/07/21 06:41:57;;;;;;;3.97;3.65;;;;;;;22.19;73.15;100987.63;5012480;28;20211;-82
2022/07/21 06:44:24;;;;;;;3.10;2.90;;;;;;;22.21;72.61;100985.63;5011054;28;20227;-82
2022/07/21 06:46:52;;;;;;;3.70;3.20;;;;;;;22.19;72.46;100988.50;5006425;28;20240;-81
2022/07/21 06:49:19;;;;;;;3.05;2.75;;;;;;;22.19;72.40;100971.38;5013817;28;20210;-82
2022/07/21 06:51:45;;;;;;;3.75;2.92;;;;;;;22.19;72.12;100980.34;5015748;28;20216;-81
2022/07/21 06:54:12;;;;;;;3.53;3.23;;;;;;;22.23;72.38;100984.41;5008932;28;20267;-81
2022/07/21 06:56:38;;;;;;;3.03;2.83;;;;;;;22.28;72.13;100986.63;5008218;28;20230;-81
2022/07/21 06:59:05;;;;;;;3.60;3.20;;;;;;;22.32;71.73;100985.31;5014819;28;20586;-81
2022/07/21 07:01:31;;;;;;;3.42;3.20;;;;;;;22.34;71.69;100984.13;5012209;28;20214;-81
2022/07/21 07:03:59;;;;;;;3.50;3.08;;;;;;;22.37;71.38;100981.09;5012202;28;20225;-81
2022/07/21 07:06:26;;;;;;;3.28;2.90;;;;;;;22.42;71.37;100967.84;5009882;28;20202;-81
2022/07/21 07:08:52;;;;;;;3.20;2.90;;;;;;;22.49;71.37;100965.34;5012418;28;20675;-81
2022/07/21 07:11:19;;;;;;;3.17;2.83;;;;;;;22.55;71.05;100961.09;5020137;28;20209;-81
2022/07/21 07:13:45;;;;;;;3.67;2.85;;;;;;;22.63;70.99;100959.25;5010188;28;20252;-81
2022/07/21 07:16:12;;;;;;;3.45;3.15;;;;;;;22.71;70.42;100966.56;5009161;28;20265;-82
2022/07/21 07:18:39;;;;;;;3.03;2.60;;;;;;;22.74;69.96;100977.94;5009029;28;20205;-81
2022/07/21 07:21:07;;;;;;;3.80;3.25;;;;;;;22.78;69.68;100981.19;5010109;28;20207;-82
2022/07/21 07:23:33;;;;;;;3.50;3.13;;;;;;;22.81;69.46;100981.69;5009931;28;20211;-81
2022/07/21 07:26:00;;;;;;;3.25;2.80;;;;;;;22.84;69.25;100978.66;5010759;28;20229;-82
2022/07/21 07:28:26;;;;;;;3.08;2.78;;;;;;;22.87;69.13;100982.03;5012217;28;20209;-82
2022/07/21 07:30:53;;;;;;;2.95;2.42;;;;;;;22.93;69.21;100986.81;5012256;28;20199;-82
2022/07/21 07:33:20;;;;;;;3.03;2.78;;;;;;;22.98;69.10;100985.25;5012512;28;20211;-82
2022/07/21 07:35:46;;;;;;;3.65;3.28;;;;;;;23.06;68.83;100979.00;5011933;28;20253;-83
2022/07/21 07:38:15;;;;;;;3.13;2.83;;;;;;;23.17;69.00;100978.66;5014327;28;20207;-83
2022/07/21 07:40:42;;;;;;;2.42;2.22;;;;;;;23.26;68.43;100979.50;5010980;28;20216;-82
2022/07/21 07:43:09;;;;;;;3.00;2.63;;;;;;;23.32;67.87;100986.94;5009507;28;20285;-82
2022/07/21 07:45:36;;;;;;;2.88;2.30;;;;;;;23.36;67.42;100988.31;5008563;28;20228;-83
2022/07/21 07:48:02;;;;;;;2.88;1.80;;;;;;;23.39;67.01;100991.53;5005508;28;20202;-82
2022/07/21 07:50:29;;;;;;;2.00;1.90;;;;;;;23.42;66.43;101002.06;4997902;28;20303;-82
2022/07/21 07:52:55;;;;;;;1.67;1.58;;;;;;;23.44;65.96;101002.75;5007483;28;20210;-82
2022/07/21 07:55:23;;;;;;;2.28;1.92;;;;;;;23.43;65.55;101000.22;5000892;28;20231;-82
2022/07/21 07:57:50;;;;;;;2.08;1.98;;;;;;;23.39;65.70;101002.41;5010769;28;20583;-82
2022/07/21 08:00:19;;;;;;;2.08;1.85;;;;;;;23.38;65.54;101011.59;5012676;28;20219;-83
2022/07/21 08:02:45;;;;;;;2.22;1.75;;;;;;;23.36;65.54;101024.50;5010382;28;20218;-82
2022/07/21 08:05:12;;;;;;;1.85;1.75;;;;;;;23.33;65.50;101021.25;5010468;28;20234;-82
2022/07/21 08:07:40;;;;;;;2.22;1.77;;;;;;;23.26;65.51;101018.41;5011328;28;20215;-82
2022/07/21 08:10:08;;;;;;;29.60;6.00;;;;;;;23.21;65.75;101026.19;5016183;28;20206;-82
2022/07/21 08:12:36;;;;;;;3.03;1.80;;;;;;;23.17;65.96;101031.13;5007627;28;20725;-82
2022/07/21 08:15:03;;;;;;;1.80;1.70;;;;;;;23.15;66.37;101041.31;5007233;28;20230;-82
2022/07/21 08:17:30;;;;;;;2.00;1.90;;;;;;;23.12;66.92;101040.78;5005445;28;20227;-82
2022/07/21 08:19:56;;;;;;;2.10;2.00;;;;;;;23.10;67.60;101040.13;5005854;28;20206;-82
2022/07/21 08:22:23;;;;;;;7.22;3.25;;;;;;;23.08;68.13;101045.72;5011187;28;20211;-82
2022/07/21 08:24:49;;;;;;;2.58;2.20;;;;;;;23.04;68.58;101043.50;5010801;28;20226;-82
2022/07/21 08:27:16;;;;;;;2.28;1.95;;;;;;;22.99;68.82;101046.72;5007316;28;20202;-83
2022/07/21 08:29:46;;;;;;;11.27;4.15;;;;;;;22.90;68.85;101055.03;5017295;28;20640;-83
2022/07/21 08:32:12;;;;;;;2.55;2.15;;;;;;;22.82;69.23;101045.00;5010580;28;20210;-82
2022/07/21 08:34:39;;;;;;;1.73;1.63;;;;;;;22.80;69.26;101041.59;5010458;28;20577;-82
2022/07/21 08:37:06;;;;;;;3.08;1.88;;;;;;;22.75;69.26;101031.19;5009945;28;20223;-81
2022/07/21 08:39:32;;;;;;;2.00;1.80;;;;;;;22.75;69.27;101033.91;5010905;28;20218;-82
2022/07/21 08:42:00;;;;;;;2.13;1.92;;;;;;;22.77;69.30;101036.50;5010132;28;20202;-82
2022/07/21 08:44:27;;;;;;;2.42;2.22;;;;;;;22.79;69.28;101046.19;5012536;28;20231;-83
2022/07/21 08:46:55;;;;;;;2.05;1.85;;;;;;;22.82;68.86;101045.00;5010733;28;20289;-82
2022/07/21 08:49:22;;;;;;;2.30;1.80;;;;;;;22.85;68.62;101047.41;5011211;28;20665;-82
2022/07/21 08:51:51;;;;;;;2.30;2.10;;;;;;;22.84;67.89;101046.53;5005727;28;20745;-82
2022/07/21 08:54:17;;;;;;;3.38;1.95;;;;;;;22.85;67.96;101044.69;5012229;28;20221;-81
2022/07/21 08:56:44;;;;;;;7.97;2.97;;;;;;;22.87;67.81;101036.38;5008743;28;20218;-83
2022/07/21 08:59:10;;;;;;;3.70;2.70;;;;;;;22.91;67.64;101035.03;5014959;28;20221;-82
2022/07/21 09:01:37;;;;;;;3.42;3.17;;;;;;;22.93;67.19;101041.97;4999921;28;20217;-82
2022/07/21 09:04:22;;;;;;;3.53;3.22;;;;;;;22.97;66.71;101035.19;5003407;28;20246;-82
2022/07/21 09:06:54;;;;;;;4.10;3.80;;;;;;;23.01;66.56;101041.13;5006959;28;20681;-82
2022/07/21 09:09:22;;;;;;;4.78;4.38;;;;;;;23.03;66.15;101036.38;5004754;28;20199;-82
2022/07/21 09:11:49;;;;;;;5.40;5.00;;;;;;;23.08;66.26;101045.72;5017446;28;20199;-82
2022/07/21 09:14:18;;;;;;;6.00;5.50;;;;;;;23.17;65.91;101038.41;5008706;28;20733;-82
2022/07/21 09:16:47;;;;;;;5.45;5.05;;;;;;;23.23;65.49;101037.75;5013345;28;20227;-82
2022/07/21 09:19:18;;;;;;;6.32;5.72;;;;;;;23.29;64.86;101038.94;5008808;28;20201;-81
2022/07/21 09:21:47;;;;;;;6.35;5.85;;;;;;;23.36;64.61;101042.66;5013480;28;20613;-82
2022/07/21 09:24:15;;;;;;;6.78;6.18;;;;;;;23.42;64.36;101040.13;5008326;28;20218;-82
2022/07/21 09:27:09;;;;;;;6.72;6.13;;;;;;;23.51;64.08;101030.97;5011275;28;20215;-83
2022/07/21 09:29:40;;;;;;;8.35;7.65;;;;;;;23.57;63.21;101040.31;5013422;28;20214;-82
2022/07/21 09:32:24;;;;;;;8.95;8.05;;;;;;;23.60;62.52;101034.53;5013837;28;20206;-83
2022/07/21 09:34:52;;;;;;;8.93;8.13;;;;;;;23.64;61.99;101043.19;5010189;28;20588;-82
2022/07/21 09:37:22;;;;;;;8.68;7.78;;;;;;;23.70;61.72;101040.63;5012875;28;20233;-83
2022/07/21 09:39:51;;;;;;;7.18;6.57;;;;;;;23.75;61.24;101038.25;5008313;28;20294;-83
2022/07/21 09:42:21;;;;;;;7.38;6.78;;;;;;;23.78;60.41;101037.06;5002701;28;20211;-82
2022/07/21 09:44:51;;;;;;;8.10;7.45;;;;;;;23.83;60.21;101040.06;5003392;28;20242;-82
2022/07/21 09:47:21;;;;;;;8.18;7.47;;;;;;;23.90;59.99;101035.66;5008911;28;20233;-82
2022/07/21 09:49:47;;;;;;;7.25;6.65;;;;;;;23.93;59.35;101035.31;5006715;28;20217;-82
2022/07/21 09:52:23;;;;;;;5.88;5.20;;;;;;;23.98;59.45;101043.81;5011600;28;20207;-82
2022/07/21 09:54:51;;;;;;;5.40;4.90;;;;;;;24.06;59.45;101037.47;5007340;28;20228;-82
2022/07/21 09:57:18;;;;;;;5.07;4.57;;;;;;;24.18;59.08;101045.06;5003281;28;20231;-83
2022/07/21 09:59:46;;;;;;;5.07;4.57;;;;;;;24.21;57.92;101039.28;5005651;28;20218;-82
2022/07/21 10:02:17;;;;;;;4.78;4.38;;;;;;;24.28;57.59;101028.56;5003308;28;20275;-82
2022/07/21 10:04:46;;;;;;;3.88;3.58;;;;;;;24.39;57.78;101032.78;5009508;28;20637;-82
2022/07/21 10:07:14;;;;;;;4.13;3.83;;;;;;;24.49;56.62;101037.00;5003824;28;20223;-82
2022/07/21 10:09:43;;;;;;;4.20;3.90;;;;;;;24.55;56.16;101033.53;5001116;28;20304;-83
2022/07/21 10:12:10;;;;;;;4.13;3.83;;;;;;;24.69;55.51;101040.13;5001289;28;20223;-82
2022/07/21 10:14:36;;;;;;;4.50;4.10;;;;;;;24.84;55.26;101023.84;5011641;28;20454;-84
2022/07/21 10:17:03;;;;;;;4.05;3.75;;;;;;;25.00;54.25;101025.63;5007288;28;20257;-83
2022/07/21 10:19:35;;;;;;;3.85;3.55;;;;;;;25.18;53.72;101020.72;5008889;28;20210;-83
2022/07/21 10:22:10;;;;;;;4.38;4.07;;;;;;;25.40;53.02;101022.56;5007382;28;20195;-83
2022/07/21 10:24:38;;;;;;;3.92;3.63;;;;;;;25.55;51.38;101020.72;5009055;28;20312;-83
2022/07/21 10:27:07;;;;;;;4.55;4.10;;;;;;;25.62;50.91;101009.91;5007192;28;20195;-83
2022/07/21 10:29:54;;;;;;;4.30;4.00;;;;;;;25.79;50.48;101013.34;5016054;28;20817;-83
2022/07/21 10:32:22;;;;;;;4.88;4.47;;;;;;;25.88;49.93;101012.22;5009672;28;20293;-83
2022/07/21 10:34:50;;;;;;;6.53;5.40;;;;;;;25.96;49.83;101012.13;5007270;28;20218;-82
2022/07/21 10:37:47;;;;;;;4.97;4.40;;;;;;;26.05;49.45;101015.59;5013382;28;20226;-82
2022/07/21 10:40:36;;;;;;;5.88;5.18;;;;;;;26.14;49.12;101012.59;5007247;28;20975;-84
2022/07/21 10:43:51;;;;;;;5.38;4.88;;;;;;;26.19;48.15;101012.84;5009538;28;20203;-83
2022/07/21 10:46:36;;;;;;;4.78;4.38;;;;;;;26.28;48.39;101009.00;5006894;28;20206;-82
2022/07/21 10:49:05;;;;;;;5.68;4.97;;;;;;;26.39;47.77;101002.22;5014684;28;20214;-83
2022/07/21 10:51:33;;;;;;;5.35;4.28;;;;;;;26.47;47.27;101010.31;5005527;28;20265;-83
2022/07/21 10:54:20;;;;;;;4.60;4.20;;;;;;;26.51;47.24;101002.59;5010950;28;20237;-83
2022/07/21 10:56:47;;;;;;;5.03;4.57;;;;;;;26.54;47.09;100996.72;5011400;28;20222;-84
2022/07/21 10:59:15;;;;;;;4.88;4.47;;;;;;;26.58;47.58;100996.13;5011629;28;20207;-83
2022/07/21 11:01:43;;;;;;;4.80;4.40;;;;;;;26.70;47.74;100991.00;5010995;28;20206;-84
2022/07/21 11:04:11;;;;;;;4.93;4.53;;;;;;;26.82;48.01;100978.53;5011907;28;20222;-83
2022/07/21 11:06:39;;;;;;;4.78;4.28;;;;;;;26.96;48.00;100985.00;5009415;28;20211;-85
2022/07/21 11:09:13;;;;;;;5.15;4.30;;;;;;;27.12;47.70;100986.63;5005423;28;20291;-83
2022/07/21 11:11:58;;;;;;;5.10;4.70;;;;;;;27.15;46.56;100980.75;5010871;28;20195;-83
2022/07/21 11:14:36;;;;;;;5.30;4.85;;;;;;;27.14;46.29;100984.53;5011276;28;20751;-83
2022/07/21 11:17:04;;;;;;;5.13;4.72;;;;;;;27.11;46.08;100984.91;5010974;28;20215;-83
2022/07/21 11:19:33;;;;;;;5.07;4.68;;;;;;;27.09;45.97;100985.13;5014537;28;20203;-83
2022/07/21 11:22:03;;;;;;;5.60;5.15;;;;;;;27.06;46.25;100988.25;5007492;28;20207;-83
2022/07/21 11:24:30;;;;;;;5.50;5.00;;;;;;;27.03;46.49;100996.00;5008827;28;20236;-83
2022/07/21 11:26:58;;;;;;;5.57;5.15;;;;;;;27.04;47.03;100997.69;5014334;28;20302;-83
2022/07/21 11:29:25;;;;;;;5.57;5.18;;;;;;;27.04;47.13;101003.16;5009438;28;20206;-82
2022/07/21 11:31:52;;;;;;;6.15;5.60;;;;;;;27.06;49.22;101009.25;5015139;28;20203;-83